createdAt,value
2019-05-03T00:00:39.577Z,0.00
2019-05-03T00:01:39.578Z,0.00
2019-05-03T00:02:41.601Z,0.00
2019-05-03T00:03:39.582Z,0.00
2019-05-03T00:04:39.580Z,0.00
2019-05-03T00:05:39.582Z,0.00
2019-05-03T00:06:39.588Z,0.00
2019-05-03T00:07:39.584Z,0.00
2019-05-03T00:08:41.413Z,0.00
2019-05-03T00:09:39.587Z,0.00
2019-05-03T00:10:39.586Z,0.00
2019-05-03T00:11:39.588Z,0.00
2019-05-03T00:12:39.590Z,0.00
2019-05-03T00:13:39.594Z,0.00
2019-05-03T00:14:41.605Z,0.00
2019-05-03T00:15:39.595Z,0.00
2019-05-03T00:16:41.586Z,0.00
2019-05-03T00:17:39.595Z,0.00
2019-05-03T00:18:39.600Z,0.00
2019-05-03T00:19:39.599Z,0.00
2019-05-03T00:20:39.606Z,0.00
2019-05-03T00:21:39.609Z,0.00
2019-05-03T00:22:39.602Z,0.00
2019-05-03T00:23:41.634Z,0.00
2019-05-03T00:24:39.603Z,0.00
2019-05-03T00:25:39.604Z,0.00
2019-05-03T00:26:39.606Z,0.00
2019-05-03T00:27:39.607Z,0.00
2019-05-03T00:28:39.614Z,0.00
2019-05-03T00:29:41.434Z,0.00
2019-05-03T00:30:39.610Z,0.00
2019-05-03T00:31:39.611Z,0.00
2019-05-03T00:32:39.612Z,0.00
2019-05-03T00:33:39.613Z,0.00
2019-05-03T00:34:41.700Z,0.00
2019-05-03T00:35:39.615Z,0.00
2019-05-03T00:36:39.620Z,0.00
2019-05-03T00:37:39.622Z,0.00
2019-05-03T00:38:39.622Z,0.00
2019-05-03T00:39:41.728Z,0.00
2019-05-03T00:40:41.605Z,0.00
2019-05-03T00:41:39.628Z,0.00
2019-05-03T00:42:39.622Z,0.00
2019-05-03T00:43:39.629Z,0.00
2019-05-03T00:44:39.626Z,0.00
2019-05-03T00:45:39.626Z,0.00
2019-05-03T00:46:39.631Z,0.00
2019-05-03T00:47:39.630Z,0.00
2019-05-03T00:48:39.631Z,0.00
2019-05-03T00:49:39.634Z,0.00
2019-05-03T00:50:39.632Z,0.00
2019-05-03T00:51:39.633Z,0.00
2019-05-03T00:52:39.635Z,0.00
2019-05-03T00:53:39.643Z,0.00
2019-05-03T00:54:39.637Z,0.00
2019-05-03T00:55:39.640Z,0.00
2019-05-03T00:56:42.636Z,0.00
2019-05-03T00:57:41.496Z,0.00
2019-05-03T00:58:39.640Z,0.00
2019-05-03T00:59:39.643Z,0.00
2019-05-03T01:00:41.645Z,0.00
2019-05-03T01:01:39.643Z,0.00
2019-05-03T01:02:39.644Z,0.00
2019-05-03T01:03:39.647Z,0.00
2019-05-03T01:04:39.648Z,0.00
2019-05-03T01:05:39.647Z,0.00
2019-05-03T01:06:39.653Z,0.00
2019-05-03T01:07:39.649Z,0.00
2019-05-03T01:08:39.652Z,0.00
2019-05-03T01:09:39.652Z,0.00
2019-05-03T01:10:39.659Z,0.00
2019-05-03T01:11:41.718Z,0.00
2019-05-03T01:12:41.535Z,0.00
2019-05-03T01:13:39.664Z,0.00
2019-05-03T01:14:39.661Z,0.00
2019-05-03T01:15:39.659Z,0.00
2019-05-03T01:16:39.673Z,0.00
2019-05-03T01:17:39.660Z,0.00
2019-05-03T01:18:41.270Z,0.00
2019-05-03T01:19:39.672Z,0.00
2019-05-03T01:20:39.662Z,0.00
2019-05-03T01:21:39.663Z,0.00
2019-05-03T01:22:39.664Z,0.00
2019-05-03T01:23:39.666Z,0.00
2019-05-03T01:24:39.668Z,0.00
2019-05-03T01:25:39.669Z,0.00
2019-05-03T01:26:39.672Z,0.00
2019-05-03T01:27:39.670Z,0.00
2019-05-03T01:28:39.671Z,0.00
2019-05-03T01:29:39.678Z,0.00
2019-05-03T01:30:39.676Z,0.00
2019-05-03T01:31:39.677Z,0.00
2019-05-03T01:32:41.714Z,0.00
2019-05-03T01:33:39.677Z,0.00
2019-05-03T01:34:41.514Z,0.00
2019-05-03T01:35:39.678Z,0.00
2019-05-03T01:36:39.682Z,0.00
2019-05-03T01:37:39.679Z,0.00
2019-05-03T01:38:39.683Z,0.00
2019-05-03T01:39:39.683Z,0.00
2019-05-03T01:40:41.778Z,0.00
2019-05-03T01:41:41.592Z,0.00
2019-05-03T01:42:39.687Z,0.00
2019-05-03T01:43:41.508Z,0.00
2019-05-03T01:44:39.689Z,0.00
2019-05-03T01:45:39.693Z,0.00
2019-05-03T01:46:39.693Z,0.00
2019-05-03T01:47:39.700Z,0.00
2019-05-03T01:48:41.520Z,0.00
2019-05-03T01:49:39.693Z,0.00
2019-05-03T01:50:39.694Z,0.00
2019-05-03T01:51:39.695Z,0.00
2019-05-03T01:52:39.702Z,0.00
2019-05-03T01:53:41.572Z,0.00
2019-05-03T01:54:39.699Z,0.00
2019-05-03T01:55:44.461Z,0.00
2019-05-03T01:56:39.701Z,0.00
2019-05-03T01:57:39.701Z,0.00
2019-05-03T01:58:41.623Z,0.00
2019-05-03T01:59:39.715Z,0.00
2019-05-03T02:00:39.705Z,0.00
2019-05-03T02:01:39.710Z,0.00
2019-05-03T02:02:41.840Z,0.00
2019-05-03T02:03:41.709Z,0.00
2019-05-03T02:04:41.641Z,0.00
2019-05-03T02:05:39.711Z,0.00
2019-05-03T02:06:39.710Z,0.00
2019-05-03T02:07:39.711Z,0.00
2019-05-03T02:08:41.688Z,0.00
2019-05-03T02:09:41.575Z,0.00
2019-05-03T02:10:39.714Z,0.00
2019-05-03T02:11:39.718Z,0.00
2019-05-03T02:12:41.649Z,0.00
2019-05-03T02:13:39.719Z,0.00
2019-05-03T02:14:39.721Z,0.00
2019-05-03T02:15:39.732Z,0.00
2019-05-03T02:16:41.861Z,0.00
2019-05-03T02:17:39.721Z,0.00
2019-05-03T02:18:39.723Z,0.00
2019-05-03T02:19:39.726Z,0.00
2019-05-03T02:20:41.705Z,0.00
2019-05-03T02:21:41.574Z,0.00
2019-05-03T02:22:39.727Z,0.00
2019-05-03T02:23:39.729Z,0.00
2019-05-03T02:24:39.730Z,0.00
2019-05-03T02:25:41.712Z,0.00
2019-05-03T02:26:39.733Z,0.00
2019-05-03T02:27:39.731Z,0.00
2019-05-03T02:28:39.732Z,0.00
2019-05-03T02:29:41.732Z,0.00
2019-05-03T02:30:39.735Z,0.00
2019-05-03T02:31:39.740Z,0.00
2019-05-03T02:32:39.740Z,0.00
2019-05-03T02:33:39.736Z,0.00
2019-05-03T02:34:39.746Z,0.00
2019-05-03T02:35:42.712Z,0.00
2019-05-03T02:36:42.536Z,0.00
2019-05-03T02:37:39.752Z,0.00
2019-05-03T02:38:39.744Z,0.00
2019-05-03T02:39:42.498Z,0.00
2019-05-03T02:40:42.595Z,0.00
2019-05-03T02:41:39.745Z,0.00
2019-05-03T02:42:39.758Z,0.00
2019-05-03T02:43:39.749Z,0.00
2019-05-03T02:44:39.750Z,0.00
2019-05-03T02:45:39.749Z,0.00
2019-05-03T02:46:39.754Z,0.00
2019-05-03T02:47:39.753Z,0.00
2019-05-03T02:48:39.757Z,0.00
2019-05-03T02:49:39.752Z,0.00
2019-05-03T02:50:39.757Z,0.00
2019-05-03T02:51:39.756Z,0.00
2019-05-03T02:52:39.759Z,0.00
2019-05-03T02:53:39.767Z,0.00
2019-05-03T02:54:39.762Z,0.00
2019-05-03T02:55:39.759Z,0.00
2019-05-03T02:56:39.772Z,0.00
2019-05-03T02:57:39.762Z,0.00
2019-05-03T02:58:39.761Z,0.00
2019-05-03T02:59:39.763Z,0.00
2019-05-03T03:00:39.765Z,0.00
2019-05-03T03:01:39.765Z,0.00
2019-05-03T03:02:39.768Z,0.00
2019-05-03T03:03:39.766Z,0.00
2019-05-03T03:04:39.771Z,0.00
2019-05-03T03:05:39.767Z,0.00
2019-05-03T03:06:39.771Z,0.00
2019-05-03T03:07:39.773Z,0.00
2019-05-03T03:08:39.774Z,0.00
2019-05-03T03:09:39.779Z,0.00
2019-05-03T03:10:39.776Z,0.00
2019-05-03T03:11:39.779Z,0.00
2019-05-03T03:12:39.780Z,0.00
2019-05-03T03:13:39.776Z,0.00
2019-05-03T03:14:39.775Z,0.00
2019-05-03T03:15:39.777Z,0.00
2019-05-03T03:16:39.780Z,0.00
2019-05-03T03:17:39.786Z,0.00
2019-05-03T03:18:39.787Z,0.00
2019-05-03T03:19:39.781Z,0.00
2019-05-03T03:20:39.787Z,0.00
2019-05-03T03:21:39.782Z,0.00
2019-05-03T03:22:39.785Z,0.00
2019-05-03T03:23:39.786Z,0.00
2019-05-03T03:24:39.789Z,0.00
2019-05-03T03:25:39.796Z,0.00
2019-05-03T03:26:43.159Z,0.00
2019-05-03T03:27:39.788Z,0.00
2019-05-03T03:28:39.797Z,0.00
2019-05-03T03:29:39.790Z,0.00
2019-05-03T03:30:39.792Z,0.00
2019-05-03T03:31:39.794Z,0.00
2019-05-03T03:32:39.797Z,0.00
2019-05-03T03:33:40.598Z,0.00
2019-05-03T03:34:39.796Z,0.00
2019-05-03T03:35:39.811Z,0.00
2019-05-03T03:36:54.422Z,0.00
2019-05-03T03:37:39.798Z,0.00
2019-05-03T03:38:39.801Z,0.00
2019-05-03T03:39:39.809Z,0.00
2019-05-03T03:40:39.804Z,0.00
2019-05-03T03:41:39.808Z,0.00
2019-05-03T03:42:39.804Z,0.00
2019-05-03T03:43:39.809Z,0.00
2019-05-03T03:44:39.806Z,0.00
2019-05-03T03:45:39.809Z,0.00
2019-05-03T03:46:39.809Z,0.00
2019-05-03T03:47:39.809Z,0.00
2019-05-03T03:48:39.811Z,0.00
2019-05-03T03:49:39.809Z,0.00
2019-05-03T03:50:39.816Z,0.00
2019-05-03T03:51:39.817Z,0.00
2019-05-03T03:52:39.814Z,4.00
2019-05-03T03:53:39.823Z,0.00
2019-05-03T03:54:39.815Z,0.00
2019-05-03T03:55:39.826Z,4.00
2019-05-03T03:56:54.525Z,4.00
2019-05-03T03:57:39.824Z,4.00
2019-05-03T03:58:39.820Z,4.00
2019-05-03T03:59:39.819Z,8.00
2019-05-03T04:00:39.822Z,8.00
2019-05-03T04:01:39.822Z,8.00
2019-05-03T04:02:39.823Z,12.00
2019-05-03T04:03:39.829Z,12.00
2019-05-03T04:04:39.826Z,16.00
2019-05-03T04:05:39.830Z,16.00
2019-05-03T04:06:39.827Z,16.00
2019-05-03T04:07:39.830Z,16.00
2019-05-03T04:08:39.838Z,16.00
2019-05-03T04:09:39.838Z,12.00
2019-05-03T04:10:39.832Z,16.00
2019-05-03T04:11:39.833Z,16.00
2019-05-03T04:12:39.833Z,16.00
2019-05-03T04:13:39.836Z,20.00
2019-05-03T04:14:39.834Z,20.00
2019-05-03T04:15:39.836Z,20.00
2019-05-03T04:16:39.837Z,24.00
2019-05-03T04:17:39.842Z,24.00
2019-05-03T04:18:39.845Z,24.00
2019-05-03T04:19:39.847Z,28.00
2019-05-03T04:20:39.841Z,28.00
2019-05-03T04:21:39.843Z,32.00
2019-05-03T04:22:39.846Z,36.00
2019-05-03T04:23:39.844Z,36.00
2019-05-03T04:24:39.845Z,40.00
2019-05-03T04:25:39.854Z,36.00
2019-05-03T04:26:39.846Z,40.00
2019-05-03T04:27:39.849Z,40.00
2019-05-03T04:28:39.865Z,48.00
2019-05-03T04:29:39.901Z,52.00
2019-05-03T04:30:39.865Z,60.00
2019-05-03T04:31:39.855Z,64.00
2019-05-03T04:32:39.857Z,68.00
2019-05-03T04:33:39.861Z,72.00
2019-05-03T04:34:39.855Z,76.00
2019-05-03T04:35:39.858Z,76.00
2019-05-03T04:36:39.858Z,80.00
2019-05-03T04:37:39.859Z,80.00
2019-05-03T04:38:39.860Z,100.00
2019-05-03T04:39:39.862Z,104.00
2019-05-03T04:40:39.864Z,112.00
2019-05-03T04:41:39.863Z,112.00
2019-05-03T04:42:39.873Z,108.00
2019-05-03T04:43:39.865Z,108.00
2019-05-03T04:44:39.874Z,108.00
2019-05-03T04:45:39.868Z,108.00
2019-05-03T04:46:39.876Z,100.00
2019-05-03T04:47:39.871Z,92.00
2019-05-03T04:48:39.872Z,92.00
2019-05-03T04:49:39.871Z,92.00
2019-05-03T04:50:39.888Z,92.00
2019-05-03T04:51:39.872Z,84.00
2019-05-03T04:52:39.876Z,84.00
2019-05-03T04:53:39.888Z,80.00
2019-05-03T04:54:39.877Z,80.00
2019-05-03T04:55:39.877Z,72.00
2019-05-03T04:56:39.879Z,72.00
2019-05-03T04:57:45.503Z,60.00
2019-05-03T04:58:39.884Z,60.00
2019-05-03T04:59:39.881Z,60.00
2019-05-03T05:00:39.882Z,60.00
2019-05-03T05:01:39.883Z,52.00
2019-05-03T05:02:39.889Z,52.00
2019-05-03T05:03:39.885Z,52.00
2019-05-03T05:04:39.887Z,60.00
2019-05-03T05:05:39.888Z,48.00
2019-05-03T05:06:39.887Z,48.00
2019-05-03T05:07:39.890Z,48.00
2019-05-03T05:08:39.892Z,48.00
2019-05-03T05:09:39.894Z,52.00
2019-05-03T05:10:39.899Z,56.00
2019-05-03T05:11:39.895Z,52.00
2019-05-03T05:12:39.897Z,56.00
2019-05-03T05:13:39.899Z,56.00
2019-05-03T05:14:39.901Z,76.00
2019-05-03T05:15:39.916Z,84.00
2019-05-03T05:16:39.972Z,72.00
2019-05-03T05:17:39.906Z,52.00
2019-05-03T05:18:39.906Z,60.00
2019-05-03T05:19:39.911Z,52.00
2019-05-03T05:20:39.917Z,44.00
2019-05-03T05:21:39.910Z,52.00
2019-05-03T05:22:39.913Z,64.00
2019-05-03T05:23:39.913Z,76.00
2019-05-03T05:24:39.915Z,76.00
2019-05-03T05:25:39.919Z,80.00
2019-05-03T05:26:39.921Z,92.00
2019-05-03T05:27:48.679Z,88.00
2019-05-03T05:28:39.924Z,84.00
2019-05-03T05:29:39.923Z,80.00
2019-05-03T05:30:39.923Z,76.00
2019-05-03T05:31:39.927Z,76.00
2019-05-03T05:32:39.928Z,72.00
2019-05-03T05:33:39.940Z,64.00
2019-05-03T05:34:39.932Z,60.00
2019-05-03T05:35:39.936Z,64.00
2019-05-03T05:36:39.943Z,64.00
2019-05-03T05:37:39.941Z,64.00
2019-05-03T05:38:39.983Z,60.00
2019-05-03T05:39:39.942Z,60.00
2019-05-03T05:40:39.942Z,56.00
2019-05-03T05:41:39.944Z,60.00
2019-05-03T05:42:39.946Z,64.00
2019-05-03T05:43:39.947Z,68.00
2019-05-03T05:44:39.952Z,60.00
2019-05-03T05:45:39.953Z,56.00
2019-05-03T05:46:39.955Z,52.00
2019-05-03T05:47:39.955Z,52.00
2019-05-03T05:48:39.958Z,56.00
2019-05-03T05:49:39.960Z,56.00
2019-05-03T05:50:39.963Z,60.00
2019-05-03T05:51:39.965Z,60.00
2019-05-03T05:52:39.975Z,60.00
2019-05-03T05:53:39.976Z,64.00
2019-05-03T05:54:39.977Z,64.00
2019-05-03T05:55:39.982Z,60.00
2019-05-03T06:07:44.312Z,164.00
2019-05-03T06:09:36.848Z,184.00
2019-05-03T06:10:36.842Z,180.00
2019-05-03T06:12:31.488Z,168.00
2019-05-03T06:13:31.457Z,176.00
2019-05-03T06:15:26.729Z,176.00
2019-05-03T06:16:24.645Z,176.00
2019-05-03T06:18:17.696Z,176.00
2019-05-03T06:19:17.692Z,184.00
2019-05-03T06:21:12.322Z,220.00
2019-05-03T06:22:12.315Z,236.00
2019-05-03T06:24:06.006Z,244.00
2019-05-03T06:25:06.711Z,236.00
2019-05-03T06:27:00.055Z,220.00
2019-05-03T06:28:00.048Z,204.00
2019-05-03T06:29:54.565Z,200.00
2019-05-03T06:30:54.495Z,212.00
2019-05-03T06:32:46.302Z,228.00
2019-05-03T06:33:46.290Z,220.00
2019-05-03T06:35:39.443Z,208.00
2019-05-03T06:36:39.410Z,204.00
2019-05-03T06:38:34.431Z,184.00
2019-05-03T06:39:35.119Z,188.00
2019-05-03T06:41:26.173Z,208.00
2019-05-03T06:42:26.141Z,228.00
2019-05-03T06:44:27.014Z,268.00
2019-05-03T06:45:20.770Z,292.00
2019-05-03T06:47:14.874Z,292.00
2019-05-03T06:48:17.162Z,288.00
2019-05-03T06:50:07.021Z,260.00
2019-05-03T06:51:10.972Z,252.00
2019-05-03T06:53:05.896Z,248.00
2019-05-03T06:54:00.132Z,256.00
2019-05-03T06:55:55.297Z,292.00
2019-05-03T06:56:55.333Z,300.00
2019-05-03T06:58:46.419Z,296.00
2019-05-03T06:59:46.367Z,288.00
2019-05-03T07:01:39.491Z,284.00
2019-05-03T07:02:39.501Z,280.00
2019-05-03T07:04:34.608Z,280.00
2019-05-03T07:05:32.608Z,288.00
2019-05-03T07:07:35.306Z,296.00
2019-05-03T07:08:34.463Z,300.00
2019-05-03T07:10:26.369Z,312.00
2019-05-03T07:11:26.394Z,312.00
2019-05-03T07:13:25.447Z,272.00
2019-05-03T07:14:24.742Z,260.00
2019-05-03T07:15:25.198Z,264.00
2019-05-03T07:16:25.324Z,272.00
2019-05-03T07:17:24.843Z,292.00
2019-05-03T07:18:24.771Z,300.00
2019-05-03T07:19:24.992Z,320.00
2019-05-03T07:20:25.509Z,344.00
2019-05-03T07:21:24.707Z,448.00
2019-05-03T07:22:24.558Z,488.00
2019-05-03T07:23:24.613Z,508.00
2019-05-03T07:24:24.918Z,504.00
2019-05-03T07:25:25.559Z,476.00
2019-05-03T07:26:25.365Z,448.00
2019-05-03T07:27:24.877Z,384.00
2019-05-03T07:28:24.846Z,356.00
2019-05-03T07:29:25.542Z,324.00
2019-05-03T07:30:24.878Z,296.00
2019-05-03T07:31:25.535Z,292.00
2019-05-03T07:32:24.804Z,300.00
2019-05-03T07:33:25.425Z,300.00
2019-05-03T07:34:24.820Z,288.00
2019-05-03T07:35:25.169Z,296.00
2019-05-03T07:36:28.062Z,300.00
2019-05-03T07:37:24.661Z,316.00
2019-05-03T07:38:24.908Z,344.00
2019-05-03T07:39:24.633Z,396.00
2019-05-03T07:40:25.246Z,444.00
2019-05-03T07:41:27.013Z,492.00
2019-05-03T07:42:25.650Z,544.00
2019-05-03T07:43:24.636Z,604.00
2019-05-03T07:44:25.489Z,652.00
2019-05-03T07:45:25.443Z,692.00
2019-05-03T07:46:24.831Z,752.00
2019-05-03T07:47:24.757Z,820.00
2019-05-03T07:48:25.422Z,864.00
2019-05-03T07:49:24.964Z,864.00
2019-05-03T07:50:25.876Z,864.00
2019-05-03T07:51:24.932Z,880.00
2019-05-03T07:52:25.871Z,936.00
2019-05-03T07:53:25.248Z,1004.00
2019-05-03T07:54:24.905Z,1076.00
2019-05-03T07:55:24.941Z,1128.00
2019-05-03T07:56:25.474Z,1152.00
2019-05-03T07:57:25.474Z,1148.00
2019-05-03T07:58:25.260Z,1168.00
2019-05-03T07:59:25.124Z,1260.00
2019-05-03T08:00:25.330Z,1352.00
2019-05-03T08:01:25.179Z,1392.00
2019-05-03T08:02:27.242Z,1424.00
2019-05-03T08:03:24.578Z,1408.00
2019-05-03T08:04:25.508Z,1360.00
2019-05-03T08:05:24.734Z,1328.00
2019-05-03T08:06:24.805Z,1312.00
2019-05-03T08:07:25.699Z,1324.00
2019-05-03T08:08:25.033Z,1356.00
2019-05-03T08:09:24.733Z,1364.00
2019-05-03T08:10:25.628Z,1344.00
2019-05-03T08:11:24.973Z,1312.00
2019-05-03T08:12:24.738Z,1296.00
2019-05-03T08:13:25.318Z,1304.00
2019-05-03T08:14:25.245Z,1312.00
2019-05-03T08:15:24.667Z,1308.00
2019-05-03T08:16:25.275Z,1312.00
2019-05-03T08:17:25.605Z,1324.00
2019-05-03T08:18:25.705Z,1336.00
2019-05-03T08:19:27.005Z,1328.00
2019-05-03T08:20:24.895Z,1316.00
2019-05-03T08:21:25.284Z,1296.00
2019-05-03T08:22:25.614Z,1296.00
2019-05-03T08:23:29.867Z,1288.00
2019-05-03T08:24:25.334Z,1264.00
2019-05-03T08:25:24.965Z,1224.00
2019-05-03T08:26:25.648Z,1172.00
2019-05-03T08:27:25.170Z,1104.00
2019-05-03T08:28:24.719Z,1032.00
2019-05-03T08:29:24.962Z,932.00
2019-05-03T08:30:25.081Z,828.00
2019-05-03T08:31:26.521Z,744.00
2019-05-03T08:32:24.665Z,668.00
2019-05-03T08:33:24.985Z,592.00
2019-05-03T08:34:25.739Z,500.00
2019-05-03T08:35:24.667Z,440.00
2019-05-03T08:36:24.840Z,424.00
2019-05-03T08:37:24.671Z,424.00
2019-05-03T08:38:25.724Z,420.00
2019-05-03T08:39:25.171Z,420.00
2019-05-03T08:40:24.705Z,436.00
2019-05-03T08:41:24.757Z,452.00
2019-05-03T08:42:25.446Z,460.00
2019-05-03T08:43:25.514Z,472.00
2019-05-03T08:44:25.025Z,500.00
2019-05-03T08:45:25.609Z,540.00
2019-05-03T08:46:25.383Z,580.00
2019-05-03T08:47:24.881Z,640.00
2019-05-03T08:48:25.001Z,756.00
2019-05-03T08:49:25.521Z,904.00
2019-05-03T08:50:25.696Z,984.00
2019-05-03T08:51:25.114Z,964.00
2019-05-03T08:52:24.890Z,912.00
2019-05-03T08:53:25.657Z,876.00
2019-05-03T08:54:25.582Z,892.00
2019-05-03T08:55:25.051Z,956.00
2019-05-03T08:56:24.740Z,1016.00
2019-05-03T08:57:25.336Z,960.00
2019-05-03T08:58:25.640Z,988.00
2019-05-03T08:59:29.839Z,1040.00
2019-05-03T09:00:24.976Z,1104.00
2019-05-03T09:01:25.182Z,1248.00
2019-05-03T09:02:25.806Z,1340.00
2019-05-03T09:03:25.043Z,1284.00
2019-05-03T09:04:35.988Z,1232.00
2019-05-03T09:05:25.049Z,1420.00
2019-05-03T09:06:24.883Z,1352.00
2019-05-03T09:07:25.362Z,880.00
2019-05-03T09:08:24.985Z,584.00
2019-05-03T09:09:25.452Z,548.00
2019-05-03T09:10:24.985Z,512.00
2019-05-03T09:11:33.321Z,564.00
2019-05-03T09:12:25.227Z,624.00
2019-05-03T09:13:25.149Z,796.00
2019-05-03T09:14:32.689Z,964.00
2019-05-03T09:15:24.764Z,1356.00
2019-05-03T09:16:25.187Z,1596.00
2019-05-03T09:17:24.824Z,1280.00
2019-05-03T09:18:25.781Z,1084.00
2019-05-03T09:19:25.310Z,1072.00
2019-05-03T09:20:25.065Z,976.00
2019-05-03T09:21:25.502Z,776.00
2019-05-03T09:22:25.574Z,656.00
2019-05-03T09:23:25.967Z,728.00
2019-05-03T09:24:24.797Z,924.00
2019-05-03T09:25:24.846Z,964.00
2019-05-03T09:26:29.006Z,812.00
2019-05-03T09:27:24.874Z,600.00
2019-05-03T09:28:26.463Z,500.00
2019-05-03T09:29:25.527Z,476.00
2019-05-03T09:30:25.170Z,564.00
2019-05-03T09:31:24.885Z,808.00
2019-05-03T09:32:25.678Z,1108.00
2019-05-03T09:33:24.998Z,1200.00
2019-05-03T09:34:25.678Z,1360.00
2019-05-03T09:35:30.500Z,1404.00
2019-05-03T09:36:25.327Z,1340.00
2019-05-03T09:37:25.091Z,1336.00
2019-05-03T09:38:25.641Z,1144.00
2019-05-03T09:39:24.835Z,1096.00
2019-05-03T09:40:24.842Z,856.00
2019-05-03T09:41:25.659Z,632.00
2019-05-03T09:42:24.921Z,616.00
2019-05-03T09:43:25.186Z,660.00
2019-05-03T09:44:24.848Z,868.00
2019-05-03T09:45:24.853Z,936.00
2019-05-03T09:46:26.472Z,872.00
2019-05-03T09:47:25.205Z,772.00
2019-05-03T09:48:25.481Z,844.00
2019-05-03T09:49:25.331Z,792.00
2019-05-03T09:50:24.875Z,744.00
2019-05-03T09:51:25.578Z,812.00
2019-05-03T09:52:25.185Z,992.00
2019-05-03T09:53:25.634Z,1200.00
2019-05-03T09:54:25.496Z,1232.00
2019-05-03T09:55:25.344Z,1056.00
2019-05-03T09:56:25.919Z,844.00
2019-05-03T09:57:24.917Z,624.00
2019-05-03T09:58:26.371Z,636.00
2019-05-03T09:59:25.507Z,780.00
2019-05-03T10:00:24.900Z,1032.00
2019-05-03T10:01:25.591Z,1308.00
2019-05-03T10:02:24.902Z,1476.00
2019-05-03T10:03:24.904Z,1520.00
2019-05-03T10:04:25.572Z,1404.00
2019-05-03T10:05:25.541Z,1216.00
2019-05-03T10:06:25.141Z,1372.00
2019-05-03T10:07:25.810Z,1468.00
2019-05-03T10:08:25.449Z,1496.00
2019-05-03T10:09:26.048Z,1304.00
2019-05-03T10:10:24.931Z,1108.00
2019-05-03T10:11:25.447Z,940.00
2019-05-03T10:12:25.469Z,776.00
2019-05-03T10:13:26.919Z,796.00
2019-05-03T10:14:24.936Z,872.00
2019-05-03T10:15:26.043Z,1104.00
2019-05-03T10:16:24.954Z,1372.00
2019-05-03T10:17:25.295Z,1704.00
2019-05-03T10:18:25.456Z,1816.00
2019-05-03T10:19:37.119Z,1760.00
2019-05-03T10:20:25.293Z,1524.00
2019-05-03T10:21:25.795Z,1284.00
2019-05-03T10:22:25.265Z,1080.00
2019-05-03T10:23:24.965Z,880.00
2019-05-03T10:24:24.969Z,748.00
2019-05-03T10:25:24.971Z,776.00
2019-05-03T10:26:24.974Z,836.00
2019-05-03T10:27:25.233Z,908.00
2019-05-03T10:28:25.192Z,1108.00
2019-05-03T10:29:25.155Z,1420.00
2019-05-03T10:30:24.989Z,1552.00
2019-05-03T10:31:25.244Z,1632.00
2019-05-03T10:32:25.364Z,1656.00
2019-05-03T10:33:25.981Z,1668.00
2019-05-03T10:34:25.001Z,1656.00
2019-05-03T10:35:25.004Z,1372.00
2019-05-03T10:36:25.118Z,1172.00
2019-05-03T10:37:25.016Z,1092.00
2019-05-03T10:38:25.020Z,1088.00
2019-05-03T10:39:26.257Z,1084.00
2019-05-03T10:40:25.024Z,964.00
2019-05-03T10:41:25.192Z,744.00
2019-05-03T10:42:25.030Z,564.00
2019-05-03T10:43:25.037Z,492.00
2019-05-03T10:44:25.035Z,452.00
2019-05-03T10:45:27.850Z,428.00
2019-05-03T10:46:25.198Z,420.00
2019-05-03T10:47:25.471Z,408.00
2019-05-03T10:48:25.184Z,400.00
2019-05-03T10:49:25.064Z,396.00
2019-05-03T10:50:25.361Z,412.00
2019-05-03T10:51:25.060Z,480.00
2019-05-03T10:52:25.757Z,556.00
2019-05-03T10:53:25.067Z,684.00
2019-05-03T10:54:25.074Z,548.00
2019-05-03T10:55:25.129Z,496.00
2019-05-03T10:56:26.803Z,468.00
2019-05-03T10:57:25.077Z,472.00
2019-05-03T10:58:25.105Z,464.00
2019-05-03T10:59:25.079Z,496.00
2019-05-03T11:00:42.466Z,492.00
2019-05-03T11:01:25.083Z,512.00
2019-05-03T11:02:25.392Z,556.00
2019-05-03T11:03:25.099Z,596.00
2019-05-03T11:04:25.090Z,644.00
2019-05-03T11:05:25.101Z,696.00
2019-05-03T11:06:25.478Z,928.00
2019-05-03T11:07:25.657Z,1228.00
2019-05-03T11:08:25.102Z,1516.00
2019-05-03T11:09:25.883Z,1660.00
2019-05-03T11:10:25.333Z,1588.00
2019-05-03T11:11:25.896Z,1448.00
2019-05-03T11:12:25.472Z,1428.00
2019-05-03T11:13:26.427Z,1412.00
2019-05-03T11:14:25.495Z,1436.00
2019-05-03T11:15:25.918Z,1608.00
2019-05-03T11:16:25.521Z,1700.00
2019-05-03T11:17:25.614Z,1548.00
2019-05-03T11:18:25.311Z,1284.00
2019-05-03T11:19:25.544Z,1080.00
2019-05-03T11:20:29.066Z,1020.00
2019-05-03T11:21:30.831Z,1000.00
2019-05-03T11:22:25.346Z,1068.00
2019-05-03T11:23:25.232Z,1204.00
2019-05-03T11:24:27.167Z,1356.00
2019-05-03T11:25:25.157Z,1460.00
2019-05-03T11:26:25.337Z,1552.00
2019-05-03T11:27:25.184Z,1676.00
2019-05-03T11:28:25.165Z,1800.00
2019-05-03T11:29:25.173Z,1884.00
2019-05-03T11:30:25.172Z,1860.00
2019-05-03T11:31:25.173Z,1736.00
2019-05-03T11:32:25.516Z,1428.00
2019-05-03T11:33:25.182Z,1068.00
2019-05-03T11:34:25.407Z,820.00
2019-05-03T11:35:25.191Z,696.00
2019-05-03T11:36:25.357Z,688.00
2019-05-03T11:37:25.228Z,820.00
2019-05-03T11:38:25.450Z,1008.00
2019-05-03T11:39:25.233Z,1188.00
2019-05-03T11:40:25.292Z,1308.00
2019-05-03T11:41:32.519Z,1444.00
2019-05-03T11:42:25.211Z,1452.00
2019-05-03T11:43:25.222Z,1316.00
2019-05-03T11:44:25.217Z,1192.00
2019-05-03T11:45:25.227Z,1068.00
2019-05-03T11:46:25.227Z,1024.00
2019-05-03T11:47:27.541Z,1028.00
2019-05-03T11:48:25.398Z,1016.00
2019-05-03T11:49:25.515Z,1016.00
2019-05-03T11:50:25.480Z,984.00
2019-05-03T11:51:25.241Z,784.00
2019-05-03T11:52:25.867Z,604.00
2019-05-03T11:53:25.322Z,552.00
2019-05-03T11:54:25.249Z,540.00
2019-05-03T11:55:26.827Z,536.00
2019-05-03T11:56:25.256Z,608.00
2019-05-03T11:57:26.280Z,756.00
2019-05-03T11:58:26.971Z,880.00
2019-05-03T11:59:26.457Z,968.00
2019-05-03T12:00:25.358Z,916.00
2019-05-03T12:01:25.638Z,764.00
2019-05-03T12:02:25.277Z,716.00
2019-05-03T12:03:25.275Z,684.00
2019-05-03T12:04:25.276Z,688.00
2019-05-03T12:05:25.283Z,784.00
2019-05-03T12:06:25.283Z,896.00
2019-05-03T12:07:38.620Z,988.00
2019-05-03T12:08:25.371Z,1104.00
2019-05-03T12:09:25.290Z,1228.00
2019-05-03T12:10:37.256Z,1300.00
2019-05-03T12:11:25.298Z,1296.00
2019-05-03T12:12:25.301Z,1204.00
2019-05-03T12:13:25.303Z,1116.00
2019-05-03T12:14:25.307Z,1084.00
2019-05-03T12:15:25.310Z,1100.00
2019-05-03T12:17:06.833Z,1148.00
2019-05-03T12:17:29.138Z,1180.00
2019-05-03T12:18:26.038Z,1240.00
2019-05-03T12:19:30.682Z,1312.00
2019-05-03T12:20:28.647Z,1328.00
2019-05-03T12:21:27.404Z,1336.00
2019-05-03T12:22:26.083Z,1372.00
2019-05-03T12:23:26.102Z,1444.00
2019-05-03T12:24:26.722Z,1508.00
2019-05-03T12:25:26.014Z,1552.00
2019-05-03T12:26:30.044Z,1552.00
2019-05-03T12:27:25.349Z,1544.00
2019-05-03T12:28:25.685Z,1508.00
2019-05-03T12:29:25.363Z,1484.00
2019-05-03T12:30:27.684Z,1456.00
2019-05-03T12:31:35.876Z,1480.00
2019-05-03T12:32:25.369Z,1500.00
2019-05-03T12:33:26.093Z,1516.00
2019-05-03T12:34:25.681Z,1512.00
2019-05-03T12:35:25.376Z,1536.00
2019-05-03T12:36:25.375Z,1540.00
2019-05-03T12:37:25.376Z,1548.00
2019-05-03T12:38:25.653Z,1548.00
2019-05-03T12:39:30.124Z,1496.00
2019-05-03T12:40:25.611Z,1452.00
2019-05-03T12:41:25.552Z,1444.00
2019-05-03T12:42:25.654Z,1472.00
2019-05-03T12:43:25.752Z,1488.00
2019-05-03T12:44:25.398Z,1516.00
2019-05-03T12:45:25.403Z,1496.00
2019-05-03T12:46:26.182Z,1492.00
2019-05-03T12:47:25.406Z,1488.00
2019-05-03T12:48:25.409Z,1488.00
2019-05-03T12:49:25.413Z,1480.00
2019-05-03T12:50:25.427Z,1460.00
2019-05-03T12:51:25.572Z,1424.00
2019-05-03T12:52:26.792Z,1392.00
2019-05-03T12:53:25.434Z,1364.00
2019-05-03T12:54:25.432Z,1356.00
2019-05-03T12:55:25.443Z,1356.00
2019-05-03T12:56:32.313Z,1308.00
2019-05-03T12:57:25.438Z,1228.00
2019-05-03T12:58:25.459Z,1124.00
2019-05-03T12:59:26.726Z,1020.00
2019-05-03T13:00:25.451Z,956.00
2019-05-03T13:01:33.980Z,896.00
2019-05-03T13:02:25.458Z,884.00
2019-05-03T13:03:25.458Z,916.00
2019-05-03T13:04:25.469Z,980.00
2019-05-03T13:05:25.465Z,988.00
2019-05-03T13:06:25.541Z,1048.00
2019-05-03T13:07:25.474Z,1156.00
2019-05-03T13:08:25.472Z,1272.00
2019-05-03T13:09:25.476Z,1400.00
2019-05-03T13:10:26.568Z,1508.00
2019-05-03T13:11:25.488Z,1516.00
2019-05-03T13:12:25.484Z,1428.00